Time;durP1;ratioP1;P1;durP2;ratioP2;P2;SDS_P1;SDS_P2;PMS_P1;PMS_P2;Temp;Humidity;BMP_temperature;BMP_pressure;BME280_temperature;BME280_humidity;BME280_pressure;Samples;Min_cycle;Max_cycle;Signal;HPM_P1;HPM_P2
2022/03/09 00:00:20;;;;;;;8.63;4.55;;;;;;;;;;5088498;28;20100;-63
2022/03/09 00:02:46;;;;;;;6.80;4.85;;;;;;;;;;5089500;28;20188;-64
2022/03/09 00:05:12;;;;;;;7.57;4.95;;;;;;;;;;5089496;28;20048;-64
2022/03/09 00:07:38;;;;;;;6.95;5.18;;;;;;;;;;5089381;28;20538;-65
2022/03/09 00:10:05;;;;;;;8.65;5.72;;;;;;;;;;5089753;28;20501;-64
2022/03/09 00:12:31;;;;;;;7.22;4.97;;;;;;;;;;5089777;28;20527;-63
2022/03/09 00:14:57;;;;;;;6.80;4.82;;;;;;;;;;5089440;28;20402;-64
2022/03/09 00:17:23;;;;;;;7.90;5.15;;;;;;;;;;5090028;28;20493;-63
2022/03/09 00:19:50;;;;;;;7.65;4.97;;;;;;;;;;5089732;28;20055;-64
2022/03/09 00:22:16;;;;;;;8.15;4.93;;;;;;;;;;5089723;28;20040;-63
2022/03/09 00:24:42;;;;;;;9.63;5.00;;;;;;;;;;5089712;28;20036;-63
2022/03/09 00:27:08;;;;;;;7.95;4.80;;;;;;;;;;5089184;28;20036;-64
2022/03/09 00:29:35;;;;;;;7.47;4.63;;;;;;;;;;5089009;28;20058;-63
2022/03/09 00:32:00;;;;;;;8.18;5.40;;;;;;;;;;5089332;28;20036;-63
2022/03/09 00:34:27;;;;;;;8.35;5.07;;;;;;;;;;5089662;28;20082;-65
2022/03/09 00:36:53;;;;;;;8.27;5.63;;;;;;;;;;5089374;28;20059;-64
2022/03/09 00:39:19;;;;;;;8.10;5.00;;;;;;;;;;5089522;28;20036;-63
2022/03/09 00:41:45;;;;;;;8.50;4.90;;;;;;;;;;5090218;28;20070;-63
2022/03/09 00:44:11;;;;;;;7.65;4.72;;;;;;;;;;5092949;28;20056;-63
2022/03/09 00:46:37;;;;;;;11.35;5.47;;;;;;;;;;5093459;28;20044;-64
2022/03/09 00:49:03;;;;;;;11.88;6.40;;;;;;;;;;5092988;28;20097;-64
2022/03/09 00:51:29;;;;;;;11.63;5.38;;;;;;;;;;5093264;28;20044;-63
2022/03/09 00:53:55;;;;;;;8.20;5.18;;;;;;;;;;5093084;28;20070;-63
2022/03/09 00:56:21;;;;;;;10.70;5.38;;;;;;;;;;5093114;28;20468;-63
2022/03/09 00:58:48;;;;;;;11.10;5.43;;;;;;;;;;5092982;28;20048;-63
2022/03/09 01:01:14;;;;;;;14.38;5.63;;;;;;;;;;5092769;28;20485;-63
2022/03/09 01:03:40;;;;;;;8.10;5.38;;;;;;;;;;5092859;28;20459;-64
2022/03/09 01:06:06;;;;;;;7.82;5.07;;;;;;;;;;5092551;28;20120;-64
2022/03/09 01:08:32;;;;;;;9.85;5.72;;;;;;;;;;5092585;28;20036;-63
2022/03/09 01:10:58;;;;;;;8.15;5.45;;;;;;;;;;5092388;28;20042;-63
2022/03/09 01:13:25;;;;;;;10.50;5.85;;;;;;;;;;5074415;28;20040;-63
2022/03/09 01:15:53;;;;;;;8.43;5.70;;;;;;;;;;5092768;28;20097;-64
2022/03/09 01:18:19;;;;;;;9.55;5.78;;;;;;;;;;5092013;28;20102;-63
2022/03/09 01:20:45;;;;;;;10.48;6.35;;;;;;;;;;5091160;28;20038;-63
2022/03/09 01:23:11;;;;;;;8.88;5.60;;;;;;;;;;5091936;28;20415;-63
2022/03/09 01:25:37;;;;;;;7.97;5.65;;;;;;;;;;5092488;28;20047;-64
2022/03/09 01:28:03;;;;;;;9.95;6.13;;;;;;;;;;5092396;28;20036;-63
2022/03/09 01:30:29;;;;;;;10.57;6.30;;;;;;;;;;5092552;28;20032;-64
2022/03/09 01:32:55;;;;;;;9.85;5.75;;;;;;;;;;5092118;28;20123;-64
2022/03/09 01:35:21;;;;;;;11.95;5.88;;;;;;;;;;5092361;28;20379;-64
2022/03/09 01:37:47;;;;;;;12.63;6.30;;;;;;;;;;5092269;28;20043;-64
2022/03/09 01:40:14;;;;;;;12.73;6.68;;;;;;;;;;5092146;28;20046;-63
2022/03/09 01:42:40;;;;;;;10.98;5.90;;;;;;;;;;5092475;28;20143;-64
2022/03/09 01:45:07;;;;;;;8.63;5.90;;;;;;;;;;5091636;28;20056;-63
2022/03/09 01:47:33;;;;;;;9.82;6.55;;;;;;;;;;5092260;28;20047;-64
2022/03/09 01:50:00;;;;;;;10.45;6.38;;;;;;;;;;5092028;28;20043;-64
2022/03/09 01:52:26;;;;;;;10.50;6.25;;;;;;;;;;5090527;28;20040;-64
2022/03/09 01:54:53;;;;;;;8.65;5.72;;;;;;;;;;5089795;28;20032;-63
2022/03/09 01:57:20;;;;;;;9.60;6.22;;;;;;;;;;5091558;28;20032;-64
2022/03/09 01:59:48;;;;;;;10.07;6.85;;;;;;;;;;5092031;28;20038;-63
2022/03/09 02:02:14;;;;;;;10.82;6.43;;;;;;;;;;5090153;28;20233;-63
2022/03/09 02:04:40;;;;;;;10.27;6.82;;;;;;;;;;5091642;28;20444;-63
2022/03/09 02:07:10;;;;;;;11.18;5.70;;;;;;;;;;5091197;28;20046;-63
2022/03/09 02:09:44;;;;;;;10.32;5.85;;;;;;;;;;5090860;28;20039;-64
2022/03/09 02:12:11;;;;;;;8.93;6.07;;;;;;;;;;5091876;28;20040;-63
2022/03/09 02:14:39;;;;;;;12.75;6.97;;;;;;;;;;5091573;28;20097;-64
2022/03/09 02:17:06;;;;;;;11.80;6.68;;;;;;;;;;5090923;28;20032;-63
2022/03/09 02:19:32;;;;;;;11.93;6.25;;;;;;;;;;5091190;28;20048;-63
2022/03/09 02:22:12;;;;;;;11.93;6.78;;;;;;;;;;5091246;28;20163;-63
2022/03/09 02:24:38;;;;;;;8.52;5.60;;;;;;;;;;5091539;28;20410;-64
2022/03/09 02:27:04;;;;;;;9.45;6.05;;;;;;;;;;5091080;28;20032;-63
2022/03/09 02:29:30;;;;;;;11.00;5.85;;;;;;;;;;5090725;28;20079;-63
2022/03/09 02:31:56;;;;;;;9.48;6.60;;;;;;;;;;5091114;28;20127;-64
2022/03/09 02:34:22;;;;;;;9.63;6.03;;;;;;;;;;5090402;28;20565;-63
2022/03/09 02:36:48;;;;;;;11.70;6.22;;;;;;;;;;5090405;28;20116;-64
2022/03/09 02:39:14;;;;;;;9.50;6.38;;;;;;;;;;5091376;28;20471;-63
2022/03/09 02:41:40;;;;;;;10.57;5.65;;;;;;;;;;5091253;28;20101;-64
2022/03/09 02:44:06;;;;;;;10.35;6.32;;;;;;;;;;5090991;28;20044;-64
2022/03/09 02:46:32;;;;;;;10.45;6.57;;;;;;;;;;5090872;28;20050;-63
2022/03/09 02:48:58;;;;;;;9.57;6.25;;;;;;;;;;5090283;28;20040;-63
2022/03/09 02:51:24;;;;;;;9.23;6.15;;;;;;;;;;5090932;28;20036;-63
2022/03/09 02:53:50;;;;;;;10.02;6.45;;;;;;;;;;5090353;28;20093;-63
2022/03/09 02:56:16;;;;;;;10.02;6.35;;;;;;;;;;5091293;28;20040;-64
2022/03/09 02:58:43;;;;;;;11.77;6.47;;;;;;;;;;5090255;28;20040;-63
2022/03/09 03:01:10;;;;;;;8.93;5.88;;;;;;;;;;5090595;28;20036;-64
2022/03/09 03:03:37;;;;;;;10.10;5.93;;;;;;;;;;5090730;28;20498;-64
2022/03/09 03:06:03;;;;;;;11.18;6.22;;;;;;;;;;5089426;28;20118;-63
2022/03/09 03:08:30;;;;;;;9.07;5.40;;;;;;;;;;5090322;28;20032;-63
2022/03/09 03:10:56;;;;;;;10.02;6.65;;;;;;;;;;5090805;28;20048;-63
2022/03/09 03:13:22;;;;;;;11.48;6.30;;;;;;;;;;5090917;28;20040;-64
2022/03/09 03:15:48;;;;;;;9.57;6.70;;;;;;;;;;5090511;28;20040;-63
2022/03/09 03:18:14;;;;;;;10.18;6.53;;;;;;;;;;5090648;28;20044;-64
2022/03/09 03:20:40;;;;;;;10.75;6.43;;;;;;;;;;5088268;28;20044;-64
2022/03/09 03:23:06;;;;;;;12.05;6.53;;;;;;;;;;5090349;28;20036;-64
2022/03/09 03:25:32;;;;;;;10.93;5.93;;;;;;;;;;5090385;28;20050;-63
2022/03/09 03:27:58;;;;;;;13.00;5.75;;;;;;;;;;5090108;28;20089;-63
2022/03/09 03:30:24;;;;;;;14.30;6.45;;;;;;;;;;5090078;28;20474;-63
2022/03/09 03:32:50;;;;;;;10.68;6.13;;;;;;;;;;5089917;28;20046;-64
2022/03/09 03:35:16;;;;;;;12.10;6.13;;;;;;;;;;5090017;28;20040;-64
2022/03/09 03:37:42;;;;;;;9.05;5.78;;;;;;;;;;5090075;28;20066;-63
2022/03/09 03:40:08;;;;;;;10.40;6.05;;;;;;;;;;5089416;28;20113;-64
2022/03/09 03:42:34;;;;;;;10.55;5.65;;;;;;;;;;5090218;28;20028;-64
2022/03/09 03:45:01;;;;;;;9.85;5.57;;;;;;;;;;5089675;28;20097;-64
2022/03/09 03:47:27;;;;;;;11.80;6.50;;;;;;;;;;5088710;28;20040;-64
2022/03/09 03:49:53;;;;;;;12.25;6.05;;;;;;;;;;5088437;28;20044;-63
2022/03/09 03:52:19;;;;;;;11.10;6.43;;;;;;;;;;5088917;28;20086;-64
2022/03/09 03:54:45;;;;;;;10.13;5.85;;;;;;;;;;5089990;28;20040;-64
2022/03/09 03:57:11;;;;;;;11.15;5.80;;;;;;;;;;5089445;28;20051;-64
2022/03/09 03:59:37;;;;;;;11.20;6.35;;;;;;;;;;5089999;28;20537;-63
2022/03/09 04:02:03;;;;;;;10.00;6.30;;;;;;;;;;5089456;28;20036;-64
2022/03/09 04:04:29;;;;;;;9.73;5.85;;;;;;;;;;5089648;28;20047;-63
2022/03/09 04:06:55;;;;;;;11.13;6.35;;;;;;;;;;5089432;28;20118;-63
2022/03/09 04:09:21;;;;;;;16.80;6.15;;;;;;;;;;5089787;28;20111;-63
2022/03/09 04:11:47;;;;;;;10.57;5.85;;;;;;;;;;5089834;28;20036;-63
2022/03/09 04:14:13;;;;;;;11.00;6.05;;;;;;;;;;5089292;28;20119;-63
2022/03/09 04:16:39;;;;;;;10.73;6.35;;;;;;;;;;5090155;28;20040;-64
2022/03/09 04:19:05;;;;;;;11.65;6.60;;;;;;;;;;5093705;28;20089;-64
2022/03/09 04:21:31;;;;;;;11.82;6.63;;;;;;;;;;5093862;28;20448;-63
2022/03/09 04:23:57;;;;;;;9.13;5.70;;;;;;;;;;5093652;28;20036;-63
2022/03/09 04:26:23;;;;;;;10.32;6.13;;;;;;;;;;5093462;28;20036;-63
2022/03/09 04:28:49;;;;;;;12.35;5.75;;;;;;;;;;5093493;28;20036;-64
2022/03/09 04:31:15;;;;;;;12.00;6.55;;;;;;;;;;5093076;28;20032;-63
2022/03/09 04:33:42;;;;;;;11.30;6.18;;;;;;;;;;5093034;28;20048;-64
2022/03/09 04:36:09;;;;;;;11.68;6.47;;;;;;;;;;5093090;28;20040;-64
2022/03/09 04:38:35;;;;;;;9.10;6.30;;;;;;;;;;5093197;28;20505;-64
2022/03/09 04:41:01;;;;;;;10.85;6.50;;;;;;;;;;5093924;28;20040;-63
2022/03/09 04:43:27;;;;;;;10.35;6.15;;;;;;;;;;5092673;28;20040;-63
2022/03/09 04:45:53;;;;;;;10.75;6.32;;;;;;;;;;5093793;28;20123;-63
2022/03/09 04:48:20;;;;;;;12.23;6.63;;;;;;;;;;5093010;28;20067;-63
2022/03/09 04:50:46;;;;;;;10.55;6.20;;;;;;;;;;5092153;28;20518;-63
2022/03/09 04:53:12;;;;;;;11.95;6.28;;;;;;;;;;5092782;28;20043;-64
2022/03/09 04:55:38;;;;;;;11.07;6.47;;;;;;;;;;5092742;28;20036;-64
2022/03/09 04:58:04;;;;;;;10.18;6.28;;;;;;;;;;5092849;28;20452;-64
2022/03/09 05:00:30;;;;;;;12.32;6.47;;;;;;;;;;5093025;28;20398;-63
2022/03/09 05:02:56;;;;;;;12.77;6.40;;;;;;;;;;5088946;28;20042;-63
2022/03/09 05:05:22;;;;;;;10.25;6.32;;;;;;;;;;5092765;28;20123;-63
2022/03/09 05:07:48;;;;;;;10.43;6.35;;;;;;;;;;5092507;28;20480;-64
2022/03/09 05:10:14;;;;;;;12.85;6.50;;;;;;;;;;5092513;28;20119;-63
2022/03/09 05:12:40;;;;;;;9.52;6.15;;;;;;;;;;5092727;28;20040;-64
2022/03/09 05:15:07;;;;;;;10.23;6.22;;;;;;;;;;5092652;28;20036;-63
2022/03/09 05:17:33;;;;;;;11.95;6.63;;;;;;;;;;5092296;28;20048;-64
2022/03/09 05:19:59;;;;;;;12.90;6.72;;;;;;;;;;5092712;28;20047;-64
2022/03/09 05:22:25;;;;;;;12.35;7.68;;;;;;;;;;5092277;28;20036;-63
2022/03/09 05:24:51;;;;;;;9.35;6.22;;;;;;;;;;5092421;28;20036;-64
2022/03/09 05:27:17;;;;;;;9.48;6.20;;;;;;;;;;5090913;28;20039;-63
2022/03/09 05:29:43;;;;;;;11.35;6.75;;;;;;;;;;5091173;28;20035;-63
2022/03/09 05:32:09;;;;;;;11.63;6.88;;;;;;;;;;5092691;28;20115;-63
2022/03/09 05:34:35;;;;;;;12.32;6.28;;;;;;;;;;5090638;28;20040;-63
2022/03/09 05:37:01;;;;;;;13.50;7.07;;;;;;;;;;5092142;28;20059;-64
2022/03/09 05:39:27;;;;;;;9.88;6.53;;;;;;;;;;5091373;28;20043;-63
2022/03/09 05:41:53;;;;;;;14.40;8.13;;;;;;;;;;5091612;28;20043;-63
2022/03/09 05:44:19;;;;;;;14.45;8.18;;;;;;;;;;5092207;28;20044;-63
2022/03/09 05:46:45;;;;;;;11.65;7.43;;;;;;;;;;5092416;28;20128;-64
2022/03/09 05:49:11;;;;;;;12.30;7.45;;;;;;;;;;5092233;28;20040;-63
2022/03/09 05:51:37;;;;;;;13.85;7.38;;;;;;;;;;5092421;28;20039;-63
2022/03/09 05:54:03;;;;;;;13.02;7.05;;;;;;;;;;5092376;28;20118;-64
2022/03/09 05:56:29;;;;;;;15.07;6.60;;;;;;;;;;5092312;28;20111;-64
2022/03/09 05:58:55;;;;;;;9.73;6.55;;;;;;;;;;5091739;28;20040;-63
2022/03/09 06:01:23;;;;;;;10.57;6.78;;;;;;;;;;5092336;28;20039;-64
2022/03/09 06:03:49;;;;;;;11.75;6.75;;;;;;;;;;5091770;28;20040;-64
2022/03/09 06:06:15;;;;;;;12.68;6.68;;;;;;;;;;5092529;28;20523;-63
2022/03/09 06:08:41;;;;;;;11.80;6.82;;;;;;;;;;5091757;28;20506;-63
2022/03/09 06:11:08;;;;;;;11.32;6.85;;;;;;;;;;5091532;28;20093;-64
2022/03/09 06:13:34;;;;;;;12.43;7.30;;;;;;;;;;5091784;28;20040;-64
2022/03/09 06:16:00;;;;;;;9.98;6.85;;;;;;;;;;5091377;28;20075;-63
2022/03/09 06:18:26;;;;;;;10.70;6.60;;;;;;;;;;5092143;28;20036;-63
2022/03/09 06:20:52;;;;;;;12.30;6.55;;;;;;;;;;5091504;28;20047;-64
2022/03/09 06:23:18;;;;;;;12.05;6.82;;;;;;;;;;5090148;28;20040;-63
2022/03/09 06:25:44;;;;;;;9.98;6.43;;;;;;;;;;5091708;28;20036;-63
2022/03/09 06:28:10;;;;;;;10.77;5.70;;;;;;;;;;5091795;28;20036;-63
2022/03/09 06:30:36;;;;;;;11.68;6.13;;;;;;;;;;5091102;28;20109;-63
2022/03/09 06:33:03;;;;;;;11.40;6.53;;;;;;;;;;5091250;28;20036;-63
2022/03/09 06:35:29;;;;;;;12.80;6.68;;;;;;;;;;5091816;28;20127;-64
2022/03/09 06:37:55;;;;;;;12.25;6.82;;;;;;;;;;5090806;28;20420;-63
2022/03/09 06:40:21;;;;;;;12.38;6.38;;;;;;;;;;5090465;28;20040;-62
2022/03/09 06:42:48;;;;;;;11.20;6.80;;;;;;;;;;5090982;28;20462;-63
2022/03/09 06:45:15;;;;;;;13.27;5.88;;;;;;;;;;5090809;28;20121;-64
2022/03/09 06:47:41;;;;;;;12.55;6.22;;;;;;;;;;5091442;28;20043;-64
2022/03/09 06:50:08;;;;;;;8.75;5.63;;;;;;;;;;5090648;28;20032;-64
2022/03/09 06:52:34;;;;;;;14.93;7.47;;;;;;;;;;5087105;28;20071;-64
2022/03/09 06:55:03;;;;;;;11.73;6.57;;;;;;;;;;5090620;28;20051;-64
2022/03/09 06:57:32;;;;;;;15.38;6.65;;;;;;;;;;5089403;28;20048;-64
2022/03/09 06:59:58;;;;;;;11.57;6.65;;;;;;;;;;5089678;28;20047;-64
2022/03/09 07:02:24;;;;;;;11.32;6.40;;;;;;;;;;5091138;28;20071;-64
2022/03/09 07:04:50;;;;;;;12.43;6.93;;;;;;;;;;5087608;28;20048;-64
2022/03/09 07:07:16;;;;;;;11.20;6.15;;;;;;;;;;5088520;28;20159;-64
2022/03/09 07:09:42;;;;;;;10.75;6.47;;;;;;;;;;5090374;28;20035;-64
2022/03/09 07:12:08;;;;;;;10.52;6.75;;;;;;;;;;5090321;28;20067;-64
2022/03/09 07:14:34;;;;;;;14.35;6.78;;;;;;;;;;5087724;28;20036;-64
2022/03/09 07:17:00;;;;;;;10.80;6.93;;;;;;;;;;5090059;28;20028;-64
2022/03/09 07:19:26;;;;;;;10.77;6.45;;;;;;;;;;5089444;28;20087;-64
2022/03/09 07:21:54;;;;;;;11.00;7.05;;;;;;;;;;5091314;28;20032;-63
2022/03/09 07:24:20;;;;;;;12.23;8.07;;;;;;;;;;5090479;28;20048;-64
2022/03/09 07:26:46;;;;;;;11.13;6.60;;;;;;;;;;5091246;28;20374;-64
2022/03/09 07:29:12;;;;;;;10.93;6.35;;;;;;;;;;5090369;28;20044;-64
2022/03/09 07:31:39;;;;;;;11.32;6.50;;;;;;;;;;5088621;28;20407;-64
2022/03/09 07:34:05;;;;;;;11.02;6.00;;;;;;;;;;5088661;28;20052;-64
2022/03/09 07:36:31;;;;;;;9.73;6.38;;;;;;;;;;5089547;28;20046;-64
2022/03/09 07:38:57;;;;;;;9.82;5.55;;;;;;;;;;5090175;28;20126;-64
2022/03/09 07:41:23;;;;;;;11.95;6.18;;;;;;;;;;5090091;28;20035;-64
2022/03/09 07:43:49;;;;;;;10.90;6.22;;;;;;;;;;5090062;28;20102;-64
2022/03/09 07:46:15;;;;;;;18.67;6.95;;;;;;;;;;5089150;28;20398;-64
2022/03/09 07:48:41;;;;;;;10.75;6.28;;;;;;;;;;5090444;28;20032;-64
2022/03/09 07:51:07;;;;;;;10.75;6.60;;;;;;;;;;5088806;28;20036;-64
2022/03/09 07:53:33;;;;;;;11.73;6.43;;;;;;;;;;5089783;28;20032;-65
2022/03/09 07:55:59;;;;;;;8.30;6.15;;;;;;;;;;5090475;28;20513;-64
2022/03/09 07:58:25;;;;;;;9.98;6.43;;;;;;;;;;5090177;28;20043;-63
2022/03/09 08:00:51;;;;;;;11.88;6.97;;;;;;;;;;5090504;28;20051;-63
2022/03/09 08:03:17;;;;;;;10.20;6.20;;;;;;;;;;5088551;28;20040;-64
2022/03/09 08:05:44;;;;;;;12.10;6.30;;;;;;;;;;5086002;28;20124;-65
2022/03/09 08:08:10;;;;;;;12.32;6.63;;;;;;;;;;5085603;28;20105;-63
2022/03/09 08:10:36;;;;;;;9.65;5.95;;;;;;;;;;5089841;28;22280;-64
2022/03/09 08:13:03;;;;;;;9.82;6.95;;;;;;;;;;5090193;28;20040;-64
2022/03/09 08:15:29;;;;;;;10.05;6.40;;;;;;;;;;5090030;28;20056;-66
2022/03/09 08:17:55;;;;;;;11.60;6.55;;;;;;;;;;5089378;28;20126;-64
2022/03/09 08:20:21;;;;;;;12.07;6.72;;;;;;;;;;5090034;28;20043;-64
2022/03/09 08:22:47;;;;;;;13.48;7.13;;;;;;;;;;5090270;28;20054;-65
2022/03/09 08:25:13;;;;;;;10.77;6.63;;;;;;;;;;5089958;28;20594;-67
2022/03/09 08:27:39;;;;;;;9.85;6.47;;;;;;;;;;5089057;28;20056;-64
2022/03/09 08:30:06;;;;;;;12.05;5.97;;;;;;;;;;5090604;28;20053;-65
2022/03/09 08:32:32;;;;;;;9.95;6.40;;;;;;;;;;5088580;28;20055;-64
2022/03/09 08:34:58;;;;;;;10.35;6.05;;;;;;;;;;5090786;28;20036;-64
2022/03/09 08:37:24;;;;;;;11.52;6.60;;;;;;;;;;5090684;28;20044;-65
2022/03/09 08:39:50;;;;;;;12.10;6.85;;;;;;;;;;5090245;28;20369;-63
2022/03/09 08:42:16;;;;;;;11.95;6.10;;;;;;;;;;5090511;28;20036;-64
2022/03/09 08:44:42;;;;;;;10.75;6.22;;;;;;;;;;5090100;28;20113;-64
2022/03/09 08:47:09;;;;;;;11.30;6.80;;;;;;;;;;5090091;28;20040;-63
2022/03/09 08:49:39;;;;;;;9.77;6.28;;;;;;;;;;5088690;28;20040;-64
2022/03/09 08:52:05;;;;;;;9.23;5.70;;;;;;;;;;5085567;28;20363;-64
2022/03/09 08:54:31;;;;;;;9.90;6.47;;;;;;;;;;5087807;28;20032;-64
2022/03/09 08:56:57;;;;;;;9.27;6.10;;;;;;;;;;5090415;28;20036;-64
2022/03/09 08:59:23;;;;;;;11.60;6.10;;;;;;;;;;5090083;28;20489;-64
2022/03/09 09:01:49;;;;;;;10.05;6.53;;;;;;;;;;5090133;28;20474;-64
2022/03/09 09:04:16;;;;;;;9.93;6.13;;;;;;;;;;5093146;28;20538;-65
2022/03/09 09:06:43;;;;;;;10.35;6.00;;;;;;;;;;5092735;28;20032;-64
2022/03/09 09:09:09;;;;;;;13.85;6.13;;;;;;;;;;5093693;28;20044;-65
2022/03/09 09:11:37;;;;;;;11.50;6.45;;;;;;;;;;5093349;28;20036;-64
2022/03/09 09:14:04;;;;;;;12.23;5.90;;;;;;;;;;5093614;28;20035;-64
2022/03/09 09:16:30;;;;;;;8.93;5.97;;;;;;;;;;5093560;28;20063;-63
2022/03/09 09:18:56;;;;;;;10.68;5.82;;;;;;;;;;5093347;28;20047;-63
2022/03/09 09:21:23;;;;;;;8.55;6.20;;;;;;;;;;5092211;28;20048;-64
2022/03/09 09:23:49;;;;;;;12.52;6.43;;;;;;;;;;5093435;28;20511;-64
2022/03/09 09:26:15;;;;;;;8.80;5.88;;;;;;;;;;5093786;28;20551;-64
2022/03/09 09:28:42;;;;;;;10.45;7.05;;;;;;;;;;5093277;28;20146;-64
2022/03/09 09:31:08;;;;;;;9.13;5.90;;;;;;;;;;5092892;28;20028;-65
2022/03/09 09:33:34;;;;;;;11.35;6.47;;;;;;;;;;5092888;28;20118;-65
2022/03/09 09:36:00;;;;;;;9.45;5.93;;;;;;;;;;5093478;28;20363;-64
2022/03/09 09:38:27;;;;;;;12.63;7.05;;;;;;;;;;5093305;28;20040;-64
2022/03/09 09:40:55;;;;;;;10.18;6.53;;;;;;;;;;5093250;28;20044;-64
2022/03/09 09:43:22;;;;;;;11.65;7.32;;;;;;;;;;5092901;28;20424;-65
2022/03/09 09:45:48;;;;;;;10.98;6.63;;;;;;;;;;5092798;28;20055;-64
2022/03/09 09:48:15;;;;;;;8.55;6.13;;;;;;;;;;5093404;28;20436;-64
2022/03/09 09:50:42;;;;;;;13.05;6.28;;;;;;;;;;5093008;28;20093;-64
2022/03/09 09:53:10;;;;;;;7.97;6.05;;;;;;;;;;5092344;28;20032;-66
2022/03/09 09:55:36;;;;;;;8.18;5.72;;;;;;;;;;5091342;28;20043;-64
2022/03/09 09:58:03;;;;;;;11.05;6.53;;;;;;;;;;5092466;28;20118;-65
2022/03/09 10:00:29;;;;;;;10.38;6.70;;;;;;;;;;5092927;28;20040;-64
2022/03/09 10:02:55;;;;;;;12.05;6.68;;;;;;;;;;5092639;28;20402;-64
2022/03/09 10:05:21;;;;;;;9.15;6.28;;;;;;;;;;5092191;28;20077;-65
2022/03/09 10:08:07;;;;;;;10.55;6.55;;;11.10;96.70;;;;;;5092773;28;20040;-65
2022/03/09 10:10:44;;;;;;;8.57;5.80;;;11.00;96.30;;;;;;5092600;28;20047;-65
2022/03/09 10:13:10;;;;;;;8.77;6.75;;;;;;;;;;5091542;28;20032;-64
2022/03/09 10:15:36;;;;;;;8.73;6.32;;;;;;;;;;5091903;28;20044;-65
2022/03/09 10:18:12;;;;;;;9.40;6.68;;;;;;;;;;5092107;28;20504;-64
2022/03/09 10:20:38;;;;;;;9.70;6.25;;;;;;;;;;5092605;28;20085;-64
2022/03/09 10:23:04;;;;;;;12.10;6.07;;;;;;;;;;5092305;28;20433;-65
2022/03/09 10:25:30;;;;;;;8.98;5.97;;;;;;;;;;5092293;28;20111;-65
2022/03/09 10:27:57;;;;;;;10.43;6.22;;;12.10;94.20;;;;;;5092193;28;20036;-64
2022/03/09 10:30:24;;;;;;;9.80;7.18;;;;;;;;;;5092354;28;20478;-64
2022/03/09 10:32:56;;;;;;;11.43;6.68;;;;;;;;;;5092636;28;20089;-64
2022/03/09 10:35:31;;;;;;;15.20;6.83;;;;;;;;;;5092392;28;20050;-65
2022/03/09 10:38:05;;;;;;;14.05;6.93;;;12.50;94.20;;;;;;5091813;28;20097;-64
2022/03/09 10:40:31;;;;;;;9.68;6.45;;;;;;;;;;5091076;28;20538;-64
2022/03/09 10:43:12;;;;;;;10.50;7.57;;;12.80;94.10;;;;;;5088919;28;20075;-64
2022/03/09 10:45:55;;;;;;;10.05;7.50;;;;;;;;;;5091401;28;20509;-65
2022/03/09 10:48:21;;;;;;;10.15;7.43;;;;;;;;;;5090923;28;20039;-64
2022/03/09 10:50:51;;;;;;;11.65;7.43;;;13.50;93.90;;;;;;5091953;28;20040;-64
2022/03/09 10:53:18;;;;;;;10.70;7.35;;;;;;;;;;5091699;28;20503;-64
2022/03/09 10:55:44;;;;;;;15.32;7.72;;;;;;;;;;5091859;28;20047;-64
2022/03/09 10:58:10;;;;;;;13.55;7.30;;;;;;;;;;5088692;28;20036;-66
2022/03/09 11:00:46;;;;;;;10.75;7.63;;;;;;;;;;5089729;28;20043;-64
2022/03/09 11:03:15;;;;;;;10.00;7.25;;;;;;;;;;5091600;28;20383;-64
2022/03/09 11:05:58;;;;;;;9.73;7.47;;;14.60;91.50;;;;;;5091218;28;20538;-65
2022/03/09 11:08:26;;;;;;;10.15;7.25;;;;;;;;;;5090984;28;20119;-64
2022/03/09 11:10:53;;;;;;;11.38;7.40;;;;;;;;;;5088579;28;20052;-65
2022/03/09 11:13:19;;;;;;;8.98;7.20;;;;;;;;;;5091089;28;20401;-65
2022/03/09 11:15:47;;;;;;;9.80;7.50;;;;;;;;;;5091509;28;20394;-65
2022/03/09 11:18:24;;;;;;;9.77;7.15;;;;;;;;;;5088941;28;20035;-64
2022/03/09 11:20:52;;;;;;;9.63;7.32;;;;;;;;;;5089592;28;20501;-64
2022/03/09 11:23:19;;;;;;;11.43;8.05;;;15.60;90.40;;;;;;5090787;28;20051;-65
2022/03/09 11:25:50;;;;;;;9.73;7.28;;;15.70;89.90;;;;;;5090327;28;20044;-64
2022/03/09 11:28:29;;;;;;;11.63;7.40;;;;;;;;;;5090510;28;20032;-65
2022/03/09 11:30:57;;;;;;;11.48;7.90;;;16.40;90.50;;;;;;5088611;28;20426;-65
2022/03/09 11:33:43;;;;;;;12.07;7.40;;;;;;;;;;5091514;28;20043;-64
2022/03/09 11:36:21;;;;;;;13.20;7.57;;;16.40;87.30;;;;;;5091307;28;20398;-64
2022/03/09 11:38:48;;;;;;;11.27;7.28;;;;;;;;;;5091176;28;20115;-65
2022/03/09 11:41:21;;;;;;;10.60;7.80;;;;;;;;;;5089603;28;20075;-65
2022/03/09 11:43:48;;;;;;;12.60;7.30;;;;;;;;;;5090665;28;20056;-65
2022/03/09 11:46:14;;;;;;;10.52;7.82;;;;;;;;;;5090925;28;20044;-65
2022/03/09 11:48:53;;;;;;;10.80;7.38;;;16.80;87.50;;;;;;5089565;28;20046;-65
2022/03/09 11:51:24;;;;;;;11.90;7.72;;;16.80;87.00;;;;;;5090619;28;20036;-65
2022/03/09 11:53:55;;;;;;;9.43;7.55;;;16.70;87.80;;;;;;5090233;28;20036;-64
2022/03/09 11:56:37;;;;;;;12.30;7.78;;;16.70;86.50;;;;;;5090665;28;20040;-65
2022/03/09 11:59:14;;;;;;;12.33;7.93;;;16.70;85.50;;;;;;5090407;28;20047;-64
2022/03/09 12:01:57;;;;;;;12.02;7.47;;;;;;;;;;5090445;28;20270;-64
2022/03/09 12:04:48;;;;;;;10.23;7.32;;;17.20;84.80;;;;;;5090116;28;20071;-65
2022/03/09 12:07:34;;;;;;;9.88;7.45;;;17.10;85.90;;;;;;5089724;28;20042;-65
2022/03/09 12:10:02;;;;;;;10.30;7.40;;;;;;;;;;5090117;28;20630;-65
2022/03/09 12:12:29;;;;;;;11.00;7.28;;;;;;;;;;5090721;28;20035;-64
2022/03/09 12:15:03;;;;;;;11.32;7.50;;;;;;;;;;5090488;28;20474;-65
2022/03/09 12:17:39;;;;;;;10.90;7.60;;;17.00;86.20;;;;;;5090038;28;20028;-65
2022/03/09 12:20:27;;;;;;;11.30;7.80;;;17.00;86.50;;;;;;5090199;28;20039;-65
2022/03/09 12:22:56;;;;;;;12.43;7.75;;;;;;;;;;5090433;28;20031;-65
2022/03/09 12:25:36;;;;;;;12.35;8.13;;;;;;;;;;5089973;28;20044;-64
2022/03/09 12:28:21;;;;;;;10.43;7.72;;;;;;;;;;5088935;28;20036;-66
2022/03/09 12:30:48;;;;;;;12.98;7.30;;;;;;;;;;5089880;28;20048;-64
2022/03/09 12:33:34;;;;;;;9.93;8.02;;;16.90;85.80;;;;;;5090016;28;20040;-65
2022/03/09 12:36:07;;;;;;;9.65;7.78;;;17.10;86.30;;;;;;5086739;28;20036;-64
2022/03/09 12:38:36;;;;;;;10.10;7.40;;;;;;;;;;5092044;28;20040;-65
2022/03/09 12:41:02;;;;;;;10.48;8.35;;;;;;;;;;5092573;28;20486;-65
2022/03/09 12:43:45;;;;;;;10.20;8.00;;;;;;;;;;5092740;28;20035;-64
2022/03/09 12:46:11;;;;;;;11.95;7.60;;;;;;;;;;5093650;28;20131;-65
2022/03/09 12:48:39;;;;;;;9.60;7.28;;;;;;;;;;5093656;28;20039;-64
2022/03/09 12:51:05;;;;;;;10.75;7.63;;;;;;;;;;5093488;28;20040;-65
2022/03/09 12:53:32;;;;;;;10.35;8.07;;;;;;;;;;5093911;28;20389;-65
2022/03/09 12:55:58;;;;;;;10.23;7.95;;;;;;;;;;5091447;28;20048;-65
2022/03/09 12:58:25;;;;;;;12.25;7.95;;;18.20;83.90;;;;;;5091095;28;20032;-65
2022/03/09 13:01:04;;;;;;;10.52;7.63;;;17.90;81.90;;;;;;5093592;28;20398;-65
2022/03/09 13:03:31;;;;;;;10.45;7.50;;;;;;;;;;5093336;28;20032;-65
2022/03/09 13:05:57;;;;;;;13.13;8.38;;;;;;;;;;5093340;28;20491;-65
2022/03/09 13:08:32;;;;;;;12.52;7.97;;;17.60;83.10;;;;;;5093268;28;20040;-65
2022/03/09 13:10:59;;;;;;;14.20;8.85;;;;;;;;;;5093558;28;20042;-65
2022/03/09 13:13:32;;;;;;;12.43;7.82;;;;;;;;;;5093153;28;20093;-64
2022/03/09 13:16:02;;;;;;;10.43;7.78;;;;;;;;;;5093092;28;20040;-64
2022/03/09 13:18:34;;;;;;;10.85;7.53;;;19.30;81.90;;;;;;5093416;28;20367;-65
2022/03/09 13:21:01;;;;;;;11.07;7.63;;;19.60;82.10;;;;;;5092189;28;20044;-66
2022/03/09 13:23:33;;;;;;;9.48;7.43;;;19.90;81.20;;;;;;5093041;28;20040;-65
2022/03/09 13:26:14;;;;;;;10.35;8.40;;;;;;;;;;5092981;28;20044;-65
2022/03/09 13:28:40;;;;;;;12.52;8.30;;;;;;;;;;5092603;28;20036;-65
2022/03/09 13:31:07;;;;;;;11.60;7.68;;;;;;;;;;5092103;28;20046;-65
2022/03/09 13:33:33;;;;;;;9.32;8.07;;;;;;;;;;5093233;28;20182;-66
2022/03/09 13:35:59;;;;;;;10.75;7.68;;;;;;;;;;5092179;28;20086;-66
2022/03/09 13:38:29;;;;;;;11.23;7.85;;;;;;;;;;5091525;28;20048;-63
2022/03/09 13:41:06;;;;;;;10.85;7.88;;;20.00;78.00;;;;;;5093110;28;20044;-62
2022/03/09 13:43:39;;;;;;;11.10;7.82;;;19.90;76.90;;;;;;5093118;28;20417;-65
2022/03/09 13:46:25;;;;;;;9.75;7.88;;;19.50;76.40;;;;;;5092898;28;20521;-65
2022/03/09 13:49:14;;;;;;;10.88;7.88;;;;;;;;;;5092305;28;20109;-65
2022/03/09 13:51:40;;;;;;;9.93;7.90;;;;;;;;;;5092314;28;20114;-63
2022/03/09 13:54:07;;;;;;;12.45;8.70;;;;;;;;;;5091288;28;20101;-62
2022/03/09 13:56:34;;;;;;;12.02;8.70;;;;;;;;;;5092716;28;20548;-62
2022/03/09 13:59:00;;;;;;;9.50;8.07;;;;;;;;;;5092862;28;20075;-63
2022/03/09 14:01:33;;;;;;;10.75;8.38;;;23.90;71.40;;;;;;5092369;28;20105;-63
2022/03/09 14:04:04;;;;;;;12.68;8.45;;;23.30;71.00;;;;;;5091746;28;20032;-62
2022/03/09 14:06:31;;;;;;;9.95;8.25;;;;;;;;;;5090377;28;20135;-64
2022/03/09 14:09:13;;;;;;;13.05;8.25;;;22.50;73.90;;;;;;5091864;28;20040;-63
2022/03/09 14:11:39;;;;;;;12.38;9.07;;;;;;;;;;5091612;28;20562;-63
2022/03/09 14:14:07;;;;;;;13.50;8.77;;;;;;;;;;5091812;28;20047;-64
2022/03/09 14:16:37;;;;;;;12.43;8.32;;;;;;;;;;5091607;28;20040;-65
2022/03/09 14:19:05;;;;;;;11.02;8.57;;;23.90;71.10;;;;;;5088513;28;20048;-66
2022/03/09 14:21:31;;;;;;;11.32;8.98;;;;;;;;;;5091130;28;20628;-65
2022/03/09 14:23:58;;;;;;;10.95;9.00;;;;;;;;;;5091273;28;20123;-68